^^
Your Local Weather - Clay, NY Station Historical Data
Daily Summary for January 10, 2018 Units:  Metric    English   Both
« Previous Day
Next Day »
Daily Weekly Monthly Yearly Custom
  High: Low: Average:
Temperature: 5.5 °C -6 °C 2.9 °C
Dew Point: -0.3 °C -7.9 °C -3.6 °C
Humidity: 86% 49% 63%
Wind Speed: 11.3km/h 0km/h 5.8km/h
Wind Gust: 17.7km/h - -
Wind- - SE
Pressure: 1028.7 hPa 1020.2 hPa -
Precipitation: 6.1 mm    
Historical Graphs
 
 
Tabular Data for January 10, 2018
Time Temperature Dew Point Pressure Wind Wind Speed Wind Gust Humidity Rainfall Rate (Hourly) solar
00:38 -2.2 °C -5 °C 1028 hPa Calm     81% 0 mm 0 W/m2
04:02 -2.7 °C -5.6 °C 1028.7 hPa Calm     81% 0 mm 0 W/m2
04:45 -2.7 °C -5.6 °C 1028.7 hPa Calm     81% 0 mm 0 W/m2
06:45 -3.6 °C -5.9 °C 1028.3 hPa Calm     84% 0 mm 0 W/m2
07:58 -6 °C -7.9 °C 1027.7 hPa Calm     86% 0 mm 16 W/m2
09:18 -1.4 °C -5.9 °C 1027.3 hPa SE 3.2 km/h 8 km/h 71% 0 mm 246 W/m2
09:24 -1.2 °C -6 °C 1027.7 hPa SE 4.8 km/h 4.8 km/h 70% 0 mm 241 W/m2
09:26 -1.2 °C -6 °C 1027.7 hPa SSE 4.8 km/h 4.8 km/h 70% 0 mm 227 W/m2
09:28 -1.2 °C -6 °C 1027.3 hPa SSE 4.8 km/h 6.4 km/h 70% 0 mm 269 W/m2
09:30 -1.2 °C -6.1 °C 1027.3 hPa ESE 6.4 km/h 6.4 km/h 69% 0 mm 272 W/m2
09:34 -1 °C -6 °C 1027.3 hPa SE 4.8 km/h 6.4 km/h 69% 0 mm 264 W/m2
09:38 -0.9 °C -5.9 °C 1027.3 hPa ESE 4.8 km/h 6.4 km/h 69% 0 mm 290 W/m2
09:44 -0.8 °C -5.9 °C 1027.3 hPa SE 4.8 km/h 6.4 km/h 68% 0 mm 302 W/m2
09:46 -0.8 °C -5.9 °C 1027.3 hPa SE 4.8 km/h 6.4 km/h 68% 0 mm 309 W/m2
09:52 -0.6 °C -5.8 °C 1027.3 hPa East 4.8 km/h 4.8 km/h 68% 0 mm 332 W/m2
09:58 -0.6 °C -5.9 °C 1027.3 hPa ESE 4.8 km/h 11.3 km/h 67% 0 mm 330 W/m2
09:59 -0.6 °C -5.9 °C 1027.3 hPa SE 4.8 km/h 4.8 km/h 67% 0 mm 325 W/m2
10:03 -0.4 °C -5.8 °C 1027.7 hPa SE 4.8 km/h 6.4 km/h 67% 0 mm 334 W/m2
10:05 -0.4 °C -6 °C 1027.7 hPa East 4.8 km/h 8 km/h 66% 0 mm 322 W/m2
10:09 -0.3 °C -5.9 °C 1027.7 hPa SE 4.8 km/h 4.8 km/h 66% 0 mm 366 W/m2
10:12 -0.4 °C -5.9 °C 1027.7 hPa SE 4.8 km/h 11.3 km/h 66% 0 mm 357 W/m2
10:16 -0.4 °C -6 °C 1027.7 hPa SE 6.4 km/h 11.3 km/h 66% 0 mm 350 W/m2
10:22 -0.2 °C -5.8 °C 1027.3 hPa SE 4.8 km/h 4.8 km/h 66% 0 mm 313 W/m2
10:23 -0.1 °C -5.7 °C 1027.3 hPa SE 4.8 km/h 4.8 km/h 66% 0 mm 350 W/m2
10:32 -0.1 °C -5.9 °C 1027.3 hPa SE 3.2 km/h 3.2 km/h 65% 0 mm 283 W/m2
10:38 -0.1 °C -5.9 °C 1027 hPa SSE 4.8 km/h 4.8 km/h 65% 0 mm 308 W/m2
10:39 -0.1 °C -6.1 °C 1027 hPa SSE 4.8 km/h 4.8 km/h 64% 0 mm 330 W/m2
10:52 0.2 °C -5.8 °C 1026.6 hPa SSE 6.4 km/h 6.4 km/h 64% 0 mm 315 W/m2
10:54 0.3 °C -5.7 °C 1026.6 hPa ESE 6.4 km/h 6.4 km/h 64% 0 mm 387 W/m2
10:59 0.4 °C -5.6 °C 1026.3 hPa SSE 6.4 km/h 11.3 km/h 64% 0 mm 366 W/m2
11:06 0.6 °C -5.6 °C 1026.3 hPa SSE 8 km/h 11.3 km/h 63% 0 mm 406 W/m2
11:10 0.7 °C -5.5 °C 1026.3 hPa SE 8 km/h 8 km/h 63% 0 mm 434 W/m2
11:16 1.1 °C -5.6 °C 1025.6 hPa SE 6.4 km/h 8 km/h 61% 0 mm 411 W/m2
11:22 1.2 °C -5.7 °C 1025.6 hPa SE 8 km/h 8 km/h 60% 0 mm 397 W/m2
11:25 1.2 °C -5.7 °C 1025.6 hPa SSE 8 km/h 12.9 km/h 60% 0 mm 396 W/m2
11:32 1.3 °C -5.7 °C 1025.6 hPa ESE 6.4 km/h 9.7 km/h 60% 0 mm 427 W/m2
11:38 1 °C -5.7 °C 1025.6 hPa SSE 3.2 km/h 9.7 km/h 61% 0 mm 439 W/m2
11:50 0.9 °C -5.8 °C 1025.3 hPa NE 3.2 km/h 3.2 km/h 61% 0 mm 399 W/m2
11:52 1.1 °C -5.6 °C 1025.3 hPa SE 3.2 km/h 3.2 km/h 61% 0 mm 443 W/m2
11:58 1.3 °C -5.6 °C 1025.3 hPa ENE 3.2 km/h 3.2 km/h 60% 0 mm 369 W/m2
12:04 1.7 °C -5.5 °C 1024.9 hPa NE 3.2 km/h 3.2 km/h 59% 0 mm 462 W/m2
12:10 1.4 °C -5.5 °C 1024.9 hPa East 3.2 km/h 4.8 km/h 60% 0 mm 452 W/m2
12:12 1.6 °C -5.3 °C 1024.6 hPa East 3.2 km/h 4.8 km/h 60% 0 mm 450 W/m2
12:24 2.6 °C -5.1 °C 1024.9 hPa NE 1.6 km/h 3.2 km/h 57% 1.52 mm 448 W/m2
12:30 2.9 °C -5.4 °C 1024.6 hPa NE 1.6 km/h 1.6 km/h 54% 1.52 mm 445 W/m2
12:35 2.5 °C -5.4 °C 1024.6 hPa NNW 1.6 km/h 4.8 km/h 56% 1.02 mm 443 W/m2
12:42 2.3 °C -5.1 °C 1024.6 hPa East 1.6 km/h 1.6 km/h 58% 1.02 mm 441 W/m2
12:48 2.9 °C -5.1 °C 1024.6 hPa North 1.6 km/h 4.8 km/h 56% 1.52 mm 439 W/m2
12:54 2.4 °C -5.5 °C 1024.6 hPa ENE 3.2 km/h 6.4 km/h 56% 1.52 mm 420 W/m2
12:59 2.3 °C -5.1 °C 1024.3 hPa SE 3.2 km/h 9.7 km/h 58% 1.02 mm 432 W/m2
13:05 2.5 °C -4.9 °C 1023.6 hPa East 4.8 km/h 9.7 km/h 58% 1.02 mm 425 W/m2
13:12 2.7 °C -4.9 °C 1023.9 hPa ENE 3.2 km/h 4.8 km/h 57% 1.27 mm 422 W/m2
13:18 3.1 °C -4.8 °C 1023.6 hPa SE 3.2 km/h 6.4 km/h 56% 1.27 mm 418 W/m2
13:30 4.3 °C -5 °C 1022.9 hPa SE 8 km/h 8 km/h 51% 1.02 mm 411 W/m2
13:34 4.2 °C -5.1 °C 1022.9 hPa SSE 11.3 km/h 11.3 km/h 51% 1.78 mm 418 W/m2
13:40 4.4 °C -4.3 °C 1022.9 hPa South 9.7 km/h 9.7 km/h 53% 1.78 mm 461 W/m2
13:46 4.5 °C -5.1 °C 1022.6 hPa South 9.7 km/h 12.9 km/h 50% 1.02 mm 383 W/m2
13:52 4.4 °C -4.9 °C 1022.6 hPa SSE 11.3 km/h 11.3 km/h 51% 0 mm 211 W/m2
13:58 4.4 °C -4.6 °C 1022.6 hPa SSE 8 km/h 12.9 km/h 52% 0 mm 239 W/m2
14:02 4.4 °C -4.8 °C 1022.6 hPa South 8 km/h 12.9 km/h 51% 1.52 mm 297 W/m2
14:08 4.6 °C -4.7 °C 1022.6 hPa SE 9.7 km/h 12.9 km/h 51% 1.52 mm 260 W/m2
14:16 4.7 °C -4.9 °C 1022.6 hPa SE 8 km/h 11.3 km/h 50% 1.02 mm 339 W/m2
14:22 4.8 °C -4.8 °C 1022.2 hPa SE 8 km/h 8 km/h 50% 0 mm 330 W/m2
14:28 4.9 °C -4.6 °C 1022.6 hPa SSE 8 km/h 9.7 km/h 50% 0 mm 406 W/m2
14:36 5.3 °C -4.3 °C 1022.2 hPa South 6.4 km/h 6.4 km/h 50% 1.27 mm 98 W/m2
14:42 5 °C -4.6 °C 1022.2 hPa SE 6.4 km/h 6.4 km/h 50% 1.27 mm 220 W/m2
14:49 5.3 °C -4.3 °C 1021.9 hPa SE 4.8 km/h 9.7 km/h 50% 0 mm 320 W/m2
14:56 5.4 °C -4.2 °C 1021.9 hPa SSE 4.8 km/h 9.7 km/h 50% 0 mm 301 W/m2
15:03 5.5 °C -4.4 °C 1022.2 hPa South 6.4 km/h 6.4 km/h 49% 1.27 mm 260 W/m2
15:10 5.4 °C -4.2 °C 1022.6 hPa SSE 6.4 km/h 6.4 km/h 50% 1.27 mm 234 W/m2
15:15 5.4 °C -4.5 °C 1022.6 hPa SE 6.4 km/h 6.4 km/h 49% 1.02 mm 190 W/m2
15:22 5.4 °C -4.5 °C 1022.6 hPa SSE 4.8 km/h 4.8 km/h 49% 0 mm 130 W/m2
15:28 5.4 °C -3.9 °C 1022.6 hPa South 4.8 km/h 6.4 km/h 51% 0 mm 163 W/m2
15:33 5.2 °C -4.1 °C 1022.2 hPa SE 3.2 km/h 4.8 km/h 51% 0 mm 153 W/m2
15:40 5.3 °C -4 °C 1022.2 hPa SE 4.8 km/h 4.8 km/h 51% 0 mm 135 W/m2
15:46 5.4 °C -4.2 °C 1022.6 hPa SE 4.8 km/h 4.8 km/h 50% 0 mm 105 W/m2
15:52 5.3 °C -3.8 °C 1022.2 hPa SE 6.4 km/h 9.7 km/h 52% 0 mm 151 W/m2
15:58 5.2 °C -3.7 °C 1021.9 hPa South 8 km/h 9.7 km/h 53% 0 mm 62 W/m2
16:04 5.1 °C -3.4 °C 1021.9 hPa SSE 8 km/h 8 km/h 54% 0 mm 56 W/m2
16:12 4.9 °C -3.1 °C 1021.9 hPa SSE 3.2 km/h 4.8 km/h 56% 0 mm 30 W/m2
16:18 4.8 °C -3.2 °C 1021.9 hPa SSE 1.6 km/h 4.8 km/h 56% 0 mm 23 W/m2
16:23 4.8 °C -3.1 °C 1021.9 hPa SSE 3.2 km/h 8 km/h 57% 0 mm 16 W/m2
16:30 4.8 °C -3.1 °C 1021.9 hPa SE 4.8 km/h 4.8 km/h 57% 0 mm 12 W/m2
16:35 4.8 °C -3.1 °C 1021.9 hPa SSE 4.8 km/h 6.4 km/h 57% 0 mm 7 W/m2
16:42 4.7 °C -3.1 °C 1021.9 hPa SSE 4.8 km/h 6.4 km/h 57% 0 mm 0 W/m2
16:48 4.7 °C -2.9 °C 1021.9 hPa SSE 3.2 km/h 6.4 km/h 58% 0 mm 0 W/m2
16:53 4.6 °C -3.2 °C 1021.6 hPa SSE 4.8 km/h 11.3 km/h 57% 0 mm 0 W/m2
17:00 4.6 °C -2.9 °C 1021.6 hPa SSE 6.4 km/h 6.4 km/h 58% 0 mm 0 W/m2
17:06 4.6 °C -2.8 °C 1021.6 hPa SE 6.4 km/h 8 km/h 59% 0 mm 0 W/m2
17:12 4.6 °C -2.8 °C 1021.6 hPa SE 6.4 km/h 8 km/h 59% 0 mm 0 W/m2
17:18 4.6 °C -2.6 °C 1021.6 hPa SE 6.4 km/h 8 km/h 60% 0 mm 0 W/m2
17:24 4.4 °C -2.7 °C 1021.6 hPa SSE 4.8 km/h 8 km/h 60% 0 mm 0 W/m2
17:29 4.4 °C -2.7 °C 1021.6 hPa SSE 4.8 km/h 8 km/h 60% 0 mm 0 W/m2
17:36 4.5 °C -2.6 °C 1021.2 hPa SE 6.4 km/h 11.3 km/h 60% 0 mm 0 W/m2
17:48 4.6 °C -2.6 °C 1021.2 hPa SSE 6.4 km/h 9.7 km/h 60% 0 mm 0 W/m2
17:53 4.6 °C -2.6 °C 1021.2 hPa South 6.4 km/h 6.4 km/h 60% 0 mm 0 W/m2
18:00 4.4 °C -2.5 °C 1020.9 hPa SE 3.2 km/h 9.7 km/h 61% 0 mm 0 W/m2
18:06 4.3 °C -2.6 °C 1021.2 hPa South 4.8 km/h 9.7 km/h 61% 0 mm 0 W/m2
18:12 4.6 °C -2.3 °C 1021.2 hPa SE 8 km/h 8 km/h 61% 0 mm 0 W/m2
18:32 4.6 °C -2.3 °C 1020.9 hPa SSE 9.7 km/h 9.7 km/h 61% 0 mm 0 W/m2
18:38 4.6 °C -2.3 °C 1020.9 hPa SSE 9.7 km/h 9.7 km/h 61% 0 mm 0 W/m2
18:44 4.7 °C -2 °C 1021.2 hPa SSE 8 km/h 9.7 km/h 62% 0 mm 0 W/m2
18:49 4.7 °C -2 °C 1021.2 hPa SSE 8 km/h 8 km/h 62% 0 mm 0 W/m2
18:56 4.7 °C -2 °C 1021.2 hPa SSE 9.7 km/h 14.5 km/h 62% 0 mm 0 W/m2
19:02 4.7 °C -2 °C 1021.2 hPa SSE 9.7 km/h 12.9 km/h 62% 0 mm 0 W/m2
19:08 4.6 °C -1.7 °C 1021.2 hPa SSE 9.7 km/h 12.9 km/h 64% 0 mm 0 W/m2
19:14 4.3 °C -1.3 °C 1020.9 hPa SE 8 km/h 9.7 km/h 67% 0 mm 0 W/m2
19:19 4.1 °C -0.9 °C 1020.9 hPa SE 8 km/h 17.7 km/h 70% 0 mm 0 W/m2
19:26 3.7 °C -0.7 °C 1020.9 hPa SE 8 km/h 17.7 km/h 73% 0 mm 0 W/m2
19:32 3.6 °C -0.4 °C 1021.2 hPa SE 6.4 km/h 6.4 km/h 75% 0 mm 0 W/m2
19:50 3.6 °C -0.4 °C 1020.9 hPa SSE 4.8 km/h 6.4 km/h 75% 0 mm 0 W/m2
19:56 3.6 °C -0.6 °C 1020.9 hPa SE 6.4 km/h 9.7 km/h 74% 0 mm 0 W/m2
20:04 3.8 °C -0.4 °C 1020.9 hPa SSE 8 km/h 9.7 km/h 74% 0 mm 0 W/m2
20:08 3.8 °C -0.6 °C 1021.2 hPa ESE 9.7 km/h 9.7 km/h 73% 0 mm 0 W/m2
20:09 3.8 °C -0.6 °C 1021.2 hPa SSE 8 km/h 8 km/h 73% 0 mm 0 W/m2
20:22 3.8 °C -0.8 °C 1020.9 hPa SE 9.7 km/h 11.3 km/h 72% 0 mm 0 W/m2
20:28 3.8 °C -0.8 °C 1020.9 hPa South 8 km/h 11.3 km/h 72% 0 mm 0 W/m2
20:34 3.9 °C -0.9 °C 1020.9 hPa ESE 8 km/h 12.9 km/h 71% 0 mm 0 W/m2
20:54 4.1 °C -1.1 °C 1020.5 hPa SSE 9.7 km/h 16.1 km/h 69% 0 mm 0 W/m2
21:06 4.2 °C -1.2 °C 1020.9 hPa SSE 8 km/h 11.3 km/h 68% 0 mm 0 W/m2
21:12 4.3 °C -1.1 °C 1020.5 hPa SSE 8 km/h 8 km/h 68% 0 mm 0 W/m2
21:18 4.1 °C -0.9 °C 1020.5 hPa East 4.8 km/h 8 km/h 70% 0 mm 0 W/m2
21:24 4 °C -0.8 °C 1020.5 hPa SSE 3.2 km/h 4.8 km/h 71% 0 mm 0 W/m2
21:30 4.1 °C -0.7 °C 1020.5 hPa SSE 4.8 km/h 4.8 km/h 71% 0 mm 0 W/m2
21:35 4.1 °C -0.9 °C 1020.9 hPa SSE 4.8 km/h 6.4 km/h 70% 0 mm 0 W/m2
21:42 4 °C -0.6 °C 1020.9 hPa East 4.8 km/h 4.8 km/h 72% 0 mm 0 W/m2
21:48 3.7 °C -0.3 °C 1020.5 hPa SE 3.2 km/h 4.8 km/h 75% 0 mm 0 W/m2
21:53 3.7 °C -0.5 °C 1020.2 hPa SSE 4.8 km/h 8 km/h 74% 0 mm 0 W/m2
21:59 3.9 °C -0.4 °C 1020.5 hPa SE 6.4 km/h 6.4 km/h 73% 0 mm 0 W/m2
22:06 4.1 °C -0.7 °C 1020.9 hPa SE 6.4 km/h 9.7 km/h 71% 0 mm 0 W/m2
22:12 4.6 °C -0.7 °C 1020.9 hPa South 8 km/h 8 km/h 69% 0 mm 0 W/m2
22:18 4.8 °C -0.8 °C 1020.5 hPa SSE 9.7 km/h 11.3 km/h 67% 0 mm 0 W/m2
22:32 4.9 °C -0.9 °C 1020.5 hPa SSE 9.7 km/h 9.7 km/h 66% 0 mm 0 W/m2
22:40 4.9 °C -0.9 °C 1020.5 hPa SE 9.7 km/h 9.7 km/h 66% 0 mm 0 W/m2
22:48 4.7 °C -1.1 °C 1020.5 hPa SE 9.7 km/h 11.3 km/h 66% 0 mm 0 W/m2
22:54 4.7 °C -1.1 °C 1020.5 hPa SSE 8 km/h 11.3 km/h 66% 0 mm 0 W/m2
23:02 4.6 °C -1.2 °C 1020.5 hPa SSE 6.4 km/h 8 km/h 66% 0 mm 0 W/m2
23:08 4.6 °C -1.3 °C 1020.5 hPa SSE 6.4 km/h 9.7 km/h 66% 0 mm 0 W/m2
23:15 4.4 °C -1.3 °C 1020.2 hPa SSE 4.8 km/h 6.4 km/h 66% 0 mm 0 W/m2
23:22 4.5 °C -1.3 °C 1020.5 hPa SSE 6.4 km/h 8 km/h 66% 0 mm 0 W/m2
23:28 4.6 °C -1.3 °C 1020.2 hPa SSE 6.4 km/h 11.3 km/h 66% 0 mm 0 W/m2
23:34 4.6 °C -1.3 °C 1020.2 hPa ESE 6.4 km/h 6.4 km/h 66% 0 mm 0 W/m2
23:39 4.6 °C -1.1 °C 1020.5 hPa South 4.8 km/h 4.8 km/h 67% 0 mm 0 W/m2
23:46 4.6 °C -1.1 °C 1020.5 hPa SSW 4.8 km/h 4.8 km/h 67% 0 mm 0 W/m2
23:52 4.7 °C -0.9 °C 1020.5 hPa SSE 4.8 km/h 6.4 km/h 67% 0 mm 0 W/m2
23:58 4.7 °C -0.9 °C 1020.5 hPa South 4.8 km/h 6.4 km/h 67% 0 mm 0 W/m2
Country Meadow, Clay, NY, USA
Compliments of Weather Underground - 2 mb